x

South Bass Island, Oh (sbio1) Weather Station

3:00am - Sat 30th May 2015 All times are CDT. -5 hours from GMT.

  • Wind
    14mph, 17mph gusts
  • Air Temp 71°f
  • Sea Pressure 1015.3mb
  • South Bass Island, Oh
  • South Bass Island, Oh

More Historic Weather Station data

Upgrade to MSW Pro to gain access to the past 30 days of data for over 8000 Wavebouys and Weather Stations around the globe.

Join Pro

Comparision Forecast

View Surf forecast
   
Sat 05/30 3:00am 14 17 mph 1015.3mb 71f
2:00am 15 17 mph 1015.5mb 71f
1:00am 18 21 mph 1015.7mb 72f
12:00am 16 20 mph 1016mb 74f
Fri 05/29 11:00pm 15 17 mph 1016.2mb 75f
10:00pm 13 15 mph 1016.4mb 74f
9:00pm 10 11 mph 1016.4mb 68f
8:00pm 10 11 mph 1016.1mb 67f
7:00pm 10 11 mph 1016mb 66f
6:00pm 13 14 mph 1016.2mb 69f
5:00pm 9 14 mph 1016.7mb 71f
4:00pm 10 15 mph 1017.5mb 71f
3:00pm 10 14 mph 1018.1mb 71f
2:00pm 3 6 mph 1018.7mb 74f
1:00pm 7
mph
1019.7mb 70f
12:00pm 10 11 mph 1020.5mb 70f
11:00am 7 9 mph 1020.4mb 72f
10:00am 9
mph
1020.3mb 70f
9:00am 13 14 mph 1020.3mb 67f
8:00am 11 13 mph 1020.7mb 66f
7:00am 11 13 mph 1021.1mb 65f
6:00am 13
mph
1021.2mb 65f
5:00am 11 13 mph 1021.3mb 64f
4:00am 10 11 mph 1021.3mb 64f
3:00am 11 13 mph 1021.4mb 65f
2:00am 9 10 mph 1021.5mb 65f
1:00am 11 13 mph 1021.6mb 64f
12:00am 11 14 mph 1022.1mb 64f
Thu 05/28 11:00pm 11 15 mph 1022.6mb 65f
10:00pm 8 13 mph 1023.2mb 64f
9:00pm 8 11 mph 1023.1mb 64f
8:00pm 9 11 mph 1022.8mb 64f
7:00pm 9 13 mph 1022.9mb 65f
6:00pm 9 13 mph 1023mb 66f
5:00pm 8 10 mph 1023.2mb 67f
4:00pm 10 15 mph 1023.2mb 67f
3:00pm 9 14 mph 1023.8mb 67f
2:00pm 8 11 mph 1024.4mb 67f
1:00pm 7 10 mph 1025.1mb 67f
12:00pm 6 9 mph 1025.4mb 67f
11:00am 11 13 mph 1025.6mb 65f
10:00am 15 16 mph 1024.7mb 64f
9:00am 8 10 mph 1024.3mb 65f
8:00am 7 9 mph 1024.2mb 65f
7:00am 6 9 mph 1023.6mb 64f
6:00am 7 9 mph 1023.3mb 62f
5:00am 7 9 mph 1022.2mb 62f
4:00am 5
mph
1021.8mb 62f
3:00am 5 7 mph 1021.2mb 62f
2:00am 5 7 mph 1020.8mb 63f
1:00am 10
mph
1020mb 65f
12:00am 13
mph
1019.2mb 65f
Wed 05/27 11:00pm 10 11 mph 1018.5mb 64f
10:00pm 11
mph
1018.2mb 65f
9:00pm 9 10 mph 1017.6mb 65f
8:00pm 13 15 mph 1016.7mb 66f
7:00pm 6 9 mph 1016.5mb 66f
6:00pm 20 21 mph 1016.4mb 65f
5:00pm 17 18 mph 1016mb 65f
4:00pm 32 40 mph 1016.9mb 62f
3:00pm 51 59 mph 1016mb 67f
2:00pm 22 25 mph 1015mb 75f
1:00pm 18 24 mph 1015.4mb 73f
12:00pm 18 21 mph 1016.1mb 72f
11:00am 21 22 mph 1016.5mb 70f
10:00am 18 20 mph 1016.3mb 69f
9:00am 17 20 mph 1016.5mb 68f
8:00am 13 15 mph 1016.4mb 68f
7:00am 15 18 mph 1016.2mb 67f
6:00am 13 18 mph 1016mb 67f
5:00am 14 21 mph 1015.3mb 67f
4:00am 13 17 mph 1014.6mb 67f
3:00am 14 17 mph 1014.5mb 68f
2:00am 17 21 mph 1014.3mb 67f
1:00am 16 20 mph 1014.3mb 68f
12:00am 15 18 mph 1013.9mb 69f
Tue 05/26 11:00pm 22 24 mph 1014.1mb 70f
10:00pm 15 20 mph 1013.9mb 69f
9:00pm 18 22 mph 1013.6mb 70f
8:00pm 18 22 mph 1013.4mb 69f
7:00pm 14 16 mph 1013.7mb 67f
6:00pm 23 28 mph 1013.9mb -
5:00pm 15 24 mph 1012.1mb 83f
4:00pm 20 22 mph 1012.6mb 82f
3:00pm 11 15 mph 1013.8mb 79f
2:00pm 11 15 mph 1015.1mb 79f
1:00pm 17
mph
1016.3mb 77f
12:00pm 11 13 mph 1017.1mb 77f
11:00am 7 8 mph 1017.9mb 74f
10:00am 7
mph
1018.4mb 73f